Terminal Aerodrome Forecast
Issued by NWS Tampa Bay Area, FL

Home | Current Version | Previous Version | Text Only | Print | Product List | Glossary On
Versions: 1 2 3 4 5 6 7 8 9 10 11 12 13 14 15 16 17 18 19 20 21 22 23 24
000
FTUS42 KTBW 031127
TAFTPA
TAF
KTPA 031127Z 0312/0412 17007KT P6SM SCT020 SCT100
     FM031400 22010KT P6SM SCT020 BKN050
     FM031800 25010G15KT P6SM FEW050 SCT150 BKN250
     FM040000 24008KT P6SM BKN150 OVC200
     FM040600 24009KT P6SM VCSH BKN025=

USA.gov is the U.S. government's official web portal to all federal, state and local government web resources and services.